sensor_id;sensor_type;location;lat;lon;timestamp;P1;durP1;ratioP1;P2;durP2;ratioP2
37483;SDS011;23337;52.212;9.926;2022-12-29T00:00:51;0.97;;;0.87;;
37483;SDS011;23337;52.212;9.926;2022-12-29T00:03:17;2.07;;;1.20;;
37483;SDS011;23337;52.212;9.926;2022-12-29T00:05:43;0.80;;;0.80;;
37483;SDS011;23337;52.212;9.926;2022-12-29T00:08:09;1.87;;;1.07;;
37483;SDS011;23337;52.212;9.926;2022-12-29T00:10:35;1.33;;;0.93;;
37483;SDS011;23337;52.212;9.926;2022-12-29T00:13:01;0.93;;;0.73;;
37483;SDS011;23337;52.212;9.926;2022-12-29T00:15:50;1.40;;;1.00;;
37483;SDS011;23337;52.212;9.926;2022-12-29T00:18:16;1.10;;;0.97;;
37483;SDS011;23337;52.212;9.926;2022-12-29T00:20:42;1.30;;;0.77;;
37483;SDS011;23337;52.212;9.926;2022-12-29T00:23:26;1.13;;;0.80;;
37483;SDS011;23337;52.212;9.926;2022-12-29T00:26:14;1.57;;;1.10;;
37483;SDS011;23337;52.212;9.926;2022-12-29T00:29:00;2.40;;;1.03;;
37483;SDS011;23337;52.212;9.926;2022-12-29T00:31:45;1.00;;;0.90;;
37483;SDS011;23337;52.212;9.926;2022-12-29T00:34:29;1.13;;;0.73;;
37483;SDS011;23337;52.212;9.926;2022-12-29T00:37:14;1.80;;;1.17;;
37483;SDS011;23337;52.212;9.926;2022-12-29T00:39:40;4.47;;;1.30;;
37483;SDS011;23337;52.212;9.926;2022-12-29T00:42:24;1.47;;;1.00;;
37483;SDS011;23337;52.212;9.926;2022-12-29T00:45:09;0.80;;;0.80;;
37483;SDS011;23337;52.212;9.926;2022-12-29T00:47:34;1.40;;;0.87;;
37483;SDS011;23337;52.212;9.926;2022-12-29T00:50:00;3.00;;;0.77;;
37483;SDS011;23337;52.212;9.926;2022-12-29T00:52:26;1.43;;;0.87;;
37483;SDS011;23337;52.212;9.926;2022-12-29T00:54:52;1.90;;;0.93;;
37483;SDS011;23337;52.212;9.926;2022-12-29T00:57:18;0.83;;;0.77;;
37483;SDS011;23337;52.212;9.926;2022-12-29T00:59:44;1.03;;;0.93;;
37483;SDS011;23337;52.212;9.926;2022-12-29T01:02:10;1.77;;;0.90;;
37483;SDS011;23337;52.212;9.926;2022-12-29T01:04:36;1.23;;;1.03;;
37483;SDS011;23337;52.212;9.926;2022-12-29T01:07:02;1.10;;;0.80;;
37483;SDS011;23337;52.212;9.926;2022-12-29T01:09:28;1.30;;;0.80;;
37483;SDS011;23337;52.212;9.926;2022-12-29T01:12:13;1.73;;;1.00;;
37483;SDS011;23337;52.212;9.926;2022-12-29T01:14:39;1.87;;;0.93;;
37483;SDS011;23337;52.212;9.926;2022-12-29T01:17:05;1.40;;;0.90;;
37483;SDS011;23337;52.212;9.926;2022-12-29T01:19:31;0.70;;;0.60;;
37483;SDS011;23337;52.212;9.926;2022-12-29T01:21:57;2.30;;;0.80;;
37483;SDS011;23337;52.212;9.926;2022-12-29T01:24:23;1.10;;;0.83;;
37483;SDS011;23337;52.212;9.926;2022-12-29T01:26:50;0.93;;;0.80;;
37483;SDS011;23337;52.212;9.926;2022-12-29T01:29:16;0.83;;;0.67;;
37483;SDS011;23337;52.212;9.926;2022-12-29T01:31:42;2.23;;;0.80;;
37483;SDS011;23337;52.212;9.926;2022-12-29T01:34:08;0.90;;;0.90;;
37483;SDS011;23337;52.212;9.926;2022-12-29T01:36:34;1.70;;;0.70;;
37483;SDS011;23337;52.212;9.926;2022-12-29T01:39:00;1.00;;;0.50;;
37483;SDS011;23337;52.212;9.926;2022-12-29T01:41:26;1.23;;;0.67;;
37483;SDS011;23337;52.212;9.926;2022-12-29T01:43:56;1.23;;;0.90;;
37483;SDS011;23337;52.212;9.926;2022-12-29T01:46:28;1.37;;;1.27;;
37483;SDS011;23337;52.212;9.926;2022-12-29T01:48:57;1.27;;;0.87;;
37483;SDS011;23337;52.212;9.926;2022-12-29T01:51:25;0.63;;;0.60;;
37483;SDS011;23337;52.212;9.926;2022-12-29T01:53:52;1.37;;;0.80;;
37483;SDS011;23337;52.212;9.926;2022-12-29T01:56:19;1.10;;;0.83;;
37483;SDS011;23337;52.212;9.926;2022-12-29T01:58:46;1.80;;;0.63;;
37483;SDS011;23337;52.212;9.926;2022-12-29T02:01:13;0.70;;;0.60;;
37483;SDS011;23337;52.212;9.926;2022-12-29T02:03:40;1.03;;;0.67;;
37483;SDS011;23337;52.212;9.926;2022-12-29T02:08:33;0.90;;;0.70;;
37483;SDS011;23337;52.212;9.926;2022-12-29T02:10:59;0.60;;;0.40;;
37483;SDS011;23337;52.212;9.926;2022-12-29T02:13:26;0.80;;;0.50;;
37483;SDS011;23337;52.212;9.926;2022-12-29T02:18:22;0.73;;;0.73;;
37483;SDS011;23337;52.212;9.926;2022-12-29T02:21:03;0.60;;;0.60;;
37483;SDS011;23337;52.212;9.926;2022-12-29T02:33:52;1.23;;;0.60;;
37483;SDS011;23337;52.212;9.926;2022-12-29T02:41:33;0.97;;;0.50;;
37483;SDS011;23337;52.212;9.926;2022-12-29T02:44:04;1.43;;;0.83;;
37483;SDS011;23337;52.212;9.926;2022-12-29T02:46:44;0.73;;;0.53;;
37483;SDS011;23337;52.212;9.926;2022-12-29T02:49:15;1.60;;;0.57;;
37483;SDS011;23337;52.212;9.926;2022-12-29T02:51:44;1.87;;;0.80;;
37483;SDS011;23337;52.212;9.926;2022-12-29T02:54:12;0.70;;;0.70;;
37483;SDS011;23337;52.212;9.926;2022-12-29T02:56:56;2.03;;;0.60;;
37483;SDS011;23337;52.212;9.926;2022-12-29T02:59:22;2.53;;;0.80;;
37483;SDS011;23337;52.212;9.926;2022-12-29T03:04:51;0.70;;;0.60;;
37483;SDS011;23337;52.212;9.926;2022-12-29T03:07:22;2.07;;;1.20;;
37483;SDS011;23337;52.212;9.926;2022-12-29T03:17:38;1.70;;;0.73;;
37483;SDS011;23337;52.212;9.926;2022-12-29T03:20:06;1.00;;;0.80;;
37483;SDS011;23337;52.212;9.926;2022-12-29T03:22:34;0.70;;;0.60;;
37483;SDS011;23337;52.212;9.926;2022-12-29T03:27:32;1.23;;;0.60;;
37483;SDS011;23337;52.212;9.926;2022-12-29T03:30:00;0.87;;;0.77;;
37483;SDS011;23337;52.212;9.926;2022-12-29T03:32:28;1.87;;;0.80;;
37483;SDS011;23337;52.212;9.926;2022-12-29T03:34:56;1.93;;;0.63;;
37483;SDS011;23337;52.212;9.926;2022-12-29T03:37:25;1.10;;;0.67;;
37483;SDS011;23337;52.212;9.926;2022-12-29T03:39:51;0.87;;;0.63;;
37483;SDS011;23337;52.212;9.926;2022-12-29T03:42:19;3.20;;;0.80;;
37483;SDS011;23337;52.212;9.926;2022-12-29T03:44:46;1.83;;;0.83;;
37483;SDS011;23337;52.212;9.926;2022-12-29T03:47:12;0.67;;;0.67;;
37483;SDS011;23337;52.212;9.926;2022-12-29T03:49:39;1.10;;;0.73;;
37483;SDS011;23337;52.212;9.926;2022-12-29T03:52:05;0.77;;;0.77;;
37483;SDS011;23337;52.212;9.926;2022-12-29T03:54:31;0.60;;;0.60;;
37483;SDS011;23337;52.212;9.926;2022-12-29T03:56:57;0.90;;;0.70;;
37483;SDS011;23337;52.212;9.926;2022-12-29T03:59:23;0.40;;;0.40;;
37483;SDS011;23337;52.212;9.926;2022-12-29T04:01:49;0.80;;;0.70;;
37483;SDS011;23337;52.212;9.926;2022-12-29T04:04:15;0.60;;;0.57;;
37483;SDS011;23337;52.212;9.926;2022-12-29T04:06:41;1.10;;;0.50;;
37483;SDS011;23337;52.212;9.926;2022-12-29T04:09:07;0.70;;;0.70;;
37483;SDS011;23337;52.212;9.926;2022-12-29T04:11:35;1.10;;;0.57;;
37483;SDS011;23337;52.212;9.926;2022-12-29T04:14:00;0.53;;;0.50;;
37483;SDS011;23337;52.212;9.926;2022-12-29T04:16:26;1.23;;;0.50;;
37483;SDS011;23337;52.212;9.926;2022-12-29T04:18:52;0.60;;;0.60;;
37483;SDS011;23337;52.212;9.926;2022-12-29T04:21:18;0.63;;;0.60;;
37483;SDS011;23337;52.212;9.926;2022-12-29T04:23:44;0.60;;;0.30;;
37483;SDS011;23337;52.212;9.926;2022-12-29T04:26:10;0.87;;;0.50;;
37483;SDS011;23337;52.212;9.926;2022-12-29T04:28:36;1.40;;;0.60;;
37483;SDS011;23337;52.212;9.926;2022-12-29T04:31:03;0.53;;;0.23;;
37483;SDS011;23337;52.212;9.926;2022-12-29T04:33:29;0.77;;;0.45;;
37483;SDS011;23337;52.212;9.926;2022-12-29T04:35:55;1.13;;;0.53;;
37483;SDS011;23337;52.212;9.926;2022-12-29T04:38:22;1.53;;;0.50;;
37483;SDS011;23337;52.212;9.926;2022-12-29T04:40:48;0.40;;;0.40;;
37483;SDS011;23337;52.212;9.926;2022-12-29T04:43:14;0.30;;;0.30;;
37483;SDS011;23337;52.212;9.926;2022-12-29T04:45:45;0.67;;;0.57;;
37483;SDS011;23337;52.212;9.926;2022-12-29T04:48:11;0.67;;;0.30;;
37483;SDS011;23337;52.212;9.926;2022-12-29T04:50:37;0.87;;;0.50;;
37483;SDS011;23337;52.212;9.926;2022-12-29T04:53:03;1.43;;;0.50;;
37483;SDS011;23337;52.212;9.926;2022-12-29T04:55:29;0.63;;;0.53;;
37483;SDS011;23337;52.212;9.926;2022-12-29T04:57:55;0.80;;;0.30;;
37483;SDS011;23337;52.212;9.926;2022-12-29T05:00:21;0.73;;;0.37;;
37483;SDS011;23337;52.212;9.926;2022-12-29T05:02:47;0.60;;;0.40;;
37483;SDS011;23337;52.212;9.926;2022-12-29T05:05:13;0.70;;;0.30;;
37483;SDS011;23337;52.212;9.926;2022-12-29T05:07:39;0.33;;;0.23;;
37483;SDS011;23337;52.212;9.926;2022-12-29T05:10:06;0.57;;;0.30;;
37483;SDS011;23337;52.212;9.926;2022-12-29T05:12:32;0.50;;;0.50;;
37483;SDS011;23337;52.212;9.926;2022-12-29T05:14:58;0.67;;;0.47;;
37483;SDS011;23337;52.212;9.926;2022-12-29T05:17:24;1.17;;;0.30;;
37483;SDS011;23337;52.212;9.926;2022-12-29T05:19:50;0.20;;;0.20;;
37483;SDS011;23337;52.212;9.926;2022-12-29T05:22:16;1.03;;;0.70;;
37483;SDS011;23337;52.212;9.926;2022-12-29T05:24:42;0.40;;;0.30;;
37483;SDS011;23337;52.212;9.926;2022-12-29T05:27:08;0.40;;;0.40;;
37483;SDS011;23337;52.212;9.926;2022-12-29T05:29:34;0.53;;;0.47;;
37483;SDS011;23337;52.212;9.926;2022-12-29T05:32:00;0.70;;;0.40;;
37483;SDS011;23337;52.212;9.926;2022-12-29T05:34:26;1.20;;;0.20;;
37483;SDS011;23337;52.212;9.926;2022-12-29T05:36:52;1.93;;;0.50;;
37483;SDS011;23337;52.212;9.926;2022-12-29T05:39:18;0.50;;;0.30;;
37483;SDS011;23337;52.212;9.926;2022-12-29T05:41:44;0.33;;;0.30;;
37483;SDS011;23337;52.212;9.926;2022-12-29T05:44:10;0.67;;;0.40;;
37483;SDS011;23337;52.212;9.926;2022-12-29T05:46:37;1.17;;;0.40;;
37483;SDS011;23337;52.212;9.926;2022-12-29T05:49:03;0.60;;;0.40;;
37483;SDS011;23337;52.212;9.926;2022-12-29T05:51:29;0.77;;;0.30;;
37483;SDS011;23337;52.212;9.926;2022-12-29T05:53:54;0.47;;;0.47;;
37483;SDS011;23337;52.212;9.926;2022-12-29T05:56:20;0.20;;;0.20;;
37483;SDS011;23337;52.212;9.926;2022-12-29T05:58:46;0.27;;;0.10;;
37483;SDS011;23337;52.212;9.926;2022-12-29T06:01:12;0.47;;;0.30;;
37483;SDS011;23337;52.212;9.926;2022-12-29T06:03:38;0.60;;;0.20;;
37483;SDS011;23337;52.212;9.926;2022-12-29T06:06:04;0.70;;;0.40;;
37483;SDS011;23337;52.212;9.926;2022-12-29T06:08:30;0.40;;;0.40;;
37483;SDS011;23337;52.212;9.926;2022-12-29T06:10:56;0.30;;;0.30;;
37483;SDS011;23337;52.212;9.926;2022-12-29T06:13:22;0.30;;;0.20;;
37483;SDS011;23337;52.212;9.926;2022-12-29T06:15:48;0.30;;;0.30;;
37483;SDS011;23337;52.212;9.926;2022-12-29T06:18:14;1.33;;;0.30;;
37483;SDS011;23337;52.212;9.926;2022-12-29T06:20:40;0.20;;;0.10;;
37483;SDS011;23337;52.212;9.926;2022-12-29T06:23:06;0.83;;;0.60;;
37483;SDS011;23337;52.212;9.926;2022-12-29T06:25:32;0.30;;;0.30;;
37483;SDS011;23337;52.212;9.926;2022-12-29T06:28:00;0.73;;;0.37;;
37483;SDS011;23337;52.212;9.926;2022-12-29T06:30:26;2.40;;;0.20;;
37483;SDS011;23337;52.212;9.926;2022-12-29T06:32:53;2.10;;;0.33;;
37483;SDS011;23337;52.212;9.926;2022-12-29T06:35:19;0.40;;;0.30;;
37483;SDS011;23337;52.212;9.926;2022-12-29T06:37:46;0.30;;;0.30;;
37483;SDS011;23337;52.212;9.926;2022-12-29T06:40:12;0.50;;;0.30;;
37483;SDS011;23337;52.212;9.926;2022-12-29T06:42:38;0.90;;;0.20;;
37483;SDS011;23337;52.212;9.926;2022-12-29T06:45:04;0.30;;;0.20;;
37483;SDS011;23337;52.212;9.926;2022-12-29T06:47:30;0.37;;;0.17;;
37483;SDS011;23337;52.212;9.926;2022-12-29T06:49:56;0.47;;;0.20;;
37483;SDS011;23337;52.212;9.926;2022-12-29T06:52:22;0.13;;;0.13;;
37483;SDS011;23337;52.212;9.926;2022-12-29T06:54:49;0.20;;;0.10;;
37483;SDS011;23337;52.212;9.926;2022-12-29T06:57:15;0.20;;;0.20;;
37483;SDS011;23337;52.212;9.926;2022-12-29T06:59:41;0.30;;;0.30;;
37483;SDS011;23337;52.212;9.926;2022-12-29T07:02:08;0.10;;;0.10;;
37483;SDS011;23337;52.212;9.926;2022-12-29T07:04:35;0.20;;;0.20;;
37483;SDS011;23337;52.212;9.926;2022-12-29T07:07:00;0.20;;;0.20;;
37483;SDS011;23337;52.212;9.926;2022-12-29T07:09:26;0.10;;;0.10;;
37483;SDS011;23337;52.212;9.926;2022-12-29T07:11:52;0.30;;;0.10;;
37483;SDS011;23337;52.212;9.926;2022-12-29T07:14:18;0.50;;;0.20;;
37483;SDS011;23337;52.212;9.926;2022-12-29T07:16:45;0.90;;;0.20;;
37483;SDS011;23337;52.212;9.926;2022-12-29T07:19:11;0.50;;;0.20;;
37483;SDS011;23337;52.212;9.926;2022-12-29T07:21:37;0.28;;;0.20;;
37483;SDS011;23337;52.212;9.926;2022-12-29T07:24:03;1.20;;;0.17;;
37483;SDS011;23337;52.212;9.926;2022-12-29T07:26:29;0.40;;;0.20;;
37483;SDS011;23337;52.212;9.926;2022-12-29T07:28:55;0.17;;;0.17;;
37483;SDS011;23337;52.212;9.926;2022-12-29T07:31:22;0.30;;;0.20;;
37483;SDS011;23337;52.212;9.926;2022-12-29T07:33:48;0.23;;;0.20;;
37483;SDS011;23337;52.212;9.926;2022-12-29T07:36:14;0.27;;;0.10;;
37483;SDS011;23337;52.212;9.926;2022-12-29T07:38:41;0.17;;;0.10;;
37483;SDS011;23337;52.212;9.926;2022-12-29T07:41:07;0.83;;;0.27;;
37483;SDS011;23337;52.212;9.926;2022-12-29T07:43:33;0.20;;;0.20;;
37483;SDS011;23337;52.212;9.926;2022-12-29T07:45:59;0.50;;;0.33;;
37483;SDS011;23337;52.212;9.926;2022-12-29T07:48:25;0.30;;;0.17;;
37483;SDS011;23337;52.212;9.926;2022-12-29T07:50:51;1.03;;;0.30;;
37483;SDS011;23337;52.212;9.926;2022-12-29T07:53:17;0.30;;;0.03;;
37483;SDS011;23337;52.212;9.926;2022-12-29T07:55:43;0.53;;;0.30;;
37483;SDS011;23337;52.212;9.926;2022-12-29T07:58:09;0.13;;;0.10;;
37483;SDS011;23337;52.212;9.926;2022-12-29T08:00:35;0.13;;;0.10;;
37483;SDS011;23337;52.212;9.926;2022-12-29T08:03:02;0.40;;;0.20;;
37483;SDS011;23337;52.212;9.926;2022-12-29T08:05:30;0.50;;;0.10;;
37483;SDS011;23337;52.212;9.926;2022-12-29T08:07:56;0.20;;;0.10;;
37483;SDS011;23337;52.212;9.926;2022-12-29T08:10:22;1.03;;;0.40;;
37483;SDS011;23337;52.212;9.926;2022-12-29T08:12:48;1.03;;;0.90;;
37483;SDS011;23337;52.212;9.926;2022-12-29T08:15:14;1.60;;;1.10;;
37483;SDS011;23337;52.212;9.926;2022-12-29T08:17:40;0.50;;;0.47;;
37483;SDS011;23337;52.212;9.926;2022-12-29T08:20:06;1.30;;;1.10;;
37483;SDS011;23337;52.212;9.926;2022-12-29T08:22:32;1.93;;;0.87;;
37483;SDS011;23337;52.212;9.926;2022-12-29T08:24:58;1.17;;;0.80;;
37483;SDS011;23337;52.212;9.926;2022-12-29T08:27:25;1.23;;;0.73;;
37483;SDS011;23337;52.212;9.926;2022-12-29T08:29:51;0.53;;;0.53;;
37483;SDS011;23337;52.212;9.926;2022-12-29T08:32:17;0.30;;;0.30;;
37483;SDS011;23337;52.212;9.926;2022-12-29T08:34:43;0.50;;;0.30;;
37483;SDS011;23337;52.212;9.926;2022-12-29T08:37:09;1.47;;;0.50;;
37483;SDS011;23337;52.212;9.926;2022-12-29T08:39:35;0.67;;;0.30;;
37483;SDS011;23337;52.212;9.926;2022-12-29T08:42:01;0.60;;;0.20;;
37483;SDS011;23337;52.212;9.926;2022-12-29T08:44:27;1.40;;;0.23;;
37483;SDS011;23337;52.212;9.926;2022-12-29T08:46:53;0.40;;;0.30;;
37483;SDS011;23337;52.212;9.926;2022-12-29T08:49:19;1.63;;;0.50;;
37483;SDS011;23337;52.212;9.926;2022-12-29T08:51:45;1.07;;;0.50;;
37483;SDS011;23337;52.212;9.926;2022-12-29T08:54:11;1.17;;;0.40;;
37483;SDS011;23337;52.212;9.926;2022-12-29T08:56:37;1.37;;;0.50;;
37483;SDS011;23337;52.212;9.926;2022-12-29T08:59:03;1.63;;;0.60;;
37483;SDS011;23337;52.212;9.926;2022-12-29T09:01:29;4.93;;;0.67;;
37483;SDS011;23337;52.212;9.926;2022-12-29T09:03:55;1.53;;;0.47;;
37483;SDS011;23337;52.212;9.926;2022-12-29T09:06:21;0.97;;;0.50;;
37483;SDS011;23337;52.212;9.926;2022-12-29T09:08:47;2.27;;;0.57;;
37483;SDS011;23337;52.212;9.926;2022-12-29T09:11:21;2.00;;;0.50;;
37483;SDS011;23337;52.212;9.926;2022-12-29T09:13:47;0.80;;;0.50;;
37483;SDS011;23337;52.212;9.926;2022-12-29T09:16:14;1.60;;;0.40;;
37483;SDS011;23337;52.212;9.926;2022-12-29T09:18:40;0.40;;;0.23;;
37483;SDS011;23337;52.212;9.926;2022-12-29T09:21:06;1.10;;;0.20;;
37483;SDS011;23337;52.212;9.926;2022-12-29T09:23:33;0.33;;;0.30;;
37483;SDS011;23337;52.212;9.926;2022-12-29T09:25:59;1.33;;;0.60;;
37483;SDS011;23337;52.212;9.926;2022-12-29T09:28:25;0.50;;;0.50;;
37483;SDS011;23337;52.212;9.926;2022-12-29T09:30:53;0.50;;;0.40;;
37483;SDS011;23337;52.212;9.926;2022-12-29T09:33:19;0.60;;;0.30;;
37483;SDS011;23337;52.212;9.926;2022-12-29T09:35:50;0.30;;;0.30;;
37483;SDS011;23337;52.212;9.926;2022-12-29T09:38:16;1.00;;;0.63;;
37483;SDS011;23337;52.212;9.926;2022-12-29T09:40:43;2.10;;;0.50;;
37483;SDS011;23337;52.212;9.926;2022-12-29T09:48:04;1.80;;;0.60;;
37483;SDS011;23337;52.212;9.926;2022-12-29T09:50:34;1.67;;;0.60;;
37483;SDS011;23337;52.212;9.926;2022-12-29T09:53:04;0.67;;;0.67;;
37483;SDS011;23337;52.212;9.926;2022-12-29T09:55:35;0.70;;;0.70;;
37483;SDS011;23337;52.212;9.926;2022-12-29T09:58:03;5.23;;;1.30;;
37483;SDS011;23337;52.212;9.926;2022-12-29T10:00:37;2.80;;;1.10;;
37483;SDS011;23337;52.212;9.926;2022-12-29T10:03:17;3.23;;;1.17;;
37483;SDS011;23337;52.212;9.926;2022-12-29T10:05:51;6.03;;;1.53;;
37483;SDS011;23337;52.212;9.926;2022-12-29T10:13:36;0.90;;;0.60;;
37483;SDS011;23337;52.212;9.926;2022-12-29T10:16:11;1.53;;;0.60;;
37483;SDS011;23337;52.212;9.926;2022-12-29T10:18:49;0.43;;;0.43;;
37483;SDS011;23337;52.212;9.926;2022-12-29T10:21:21;0.90;;;0.50;;
37483;SDS011;23337;52.212;9.926;2022-12-29T10:23:52;1.00;;;0.47;;
37483;SDS011;23337;52.212;9.926;2022-12-29T10:26:19;1.93;;;0.60;;
37483;SDS011;23337;52.212;9.926;2022-12-29T10:28:47;2.47;;;0.57;;
37483;SDS011;23337;52.212;9.926;2022-12-29T10:31:16;2.90;;;0.70;;
37483;SDS011;23337;52.212;9.926;2022-12-29T10:33:44;3.13;;;0.60;;
37483;SDS011;23337;52.212;9.926;2022-12-29T10:36:15;1.30;;;0.43;;
37483;SDS011;23337;52.212;9.926;2022-12-29T10:38:59;1.57;;;0.80;;
37483;SDS011;23337;52.212;9.926;2022-12-29T10:41:30;1.40;;;0.60;;
37483;SDS011;23337;52.212;9.926;2022-12-29T10:43:59;3.00;;;0.60;;
37483;SDS011;23337;52.212;9.926;2022-12-29T10:46:29;2.70;;;0.50;;
37483;SDS011;23337;52.212;9.926;2022-12-29T10:48:58;2.33;;;0.53;;
37483;SDS011;23337;52.212;9.926;2022-12-29T10:51:32;1.33;;;1.00;;
37483;SDS011;23337;52.212;9.926;2022-12-29T10:54:32;3.40;;;0.67;;
37483;SDS011;23337;52.212;9.926;2022-12-29T11:06:56;1.47;;;0.80;;
37483;SDS011;23337;52.212;9.926;2022-12-29T11:09:29;3.30;;;0.90;;
37483;SDS011;23337;52.212;9.926;2022-12-29T11:11:55;2.00;;;0.73;;
37483;SDS011;23337;52.212;9.926;2022-12-29T11:14:30;3.17;;;0.90;;
37483;SDS011;23337;52.212;9.926;2022-12-29T11:16:57;2.13;;;0.87;;
37483;SDS011;23337;52.212;9.926;2022-12-29T11:19:25;6.00;;;1.80;;
37483;SDS011;23337;52.212;9.926;2022-12-29T11:21:52;3.07;;;0.80;;
37483;SDS011;23337;52.212;9.926;2022-12-29T11:24:25;2.07;;;0.47;;
37483;SDS011;23337;52.212;9.926;2022-12-29T11:26:52;1.17;;;0.70;;
37483;SDS011;23337;52.212;9.926;2022-12-29T11:29:28;2.93;;;0.60;;
37483;SDS011;23337;52.212;9.926;2022-12-29T11:32:10;1.80;;;0.60;;
37483;SDS011;23337;52.212;9.926;2022-12-29T11:34:36;3.80;;;0.80;;
37483;SDS011;23337;52.212;9.926;2022-12-29T11:37:03;2.63;;;0.50;;
37483;SDS011;23337;52.212;9.926;2022-12-29T11:42:00;2.30;;;0.47;;
37483;SDS011;23337;52.212;9.926;2022-12-29T11:44:27;2.60;;;0.70;;
37483;SDS011;23337;52.212;9.926;2022-12-29T11:46:54;2.97;;;0.57;;
37483;SDS011;23337;52.212;9.926;2022-12-29T11:49:22;6.13;;;0.80;;
37483;SDS011;23337;52.212;9.926;2022-12-29T11:51:49;1.70;;;0.77;;
37483;SDS011;23337;52.212;9.926;2022-12-29T11:54:20;1.87;;;0.60;;
37483;SDS011;23337;52.212;9.926;2022-12-29T11:56:47;3.70;;;1.17;;
37483;SDS011;23337;52.212;9.926;2022-12-29T12:01:56;1.57;;;0.80;;
37483;SDS011;23337;52.212;9.926;2022-12-29T12:04:24;2.80;;;0.80;;
37483;SDS011;23337;52.212;9.926;2022-12-29T12:09:19;3.73;;;1.00;;
37483;SDS011;23337;52.212;9.926;2022-12-29T12:11:47;5.10;;;1.07;;
37483;SDS011;23337;52.212;9.926;2022-12-29T12:14:32;3.37;;;0.77;;
37483;SDS011;23337;52.212;9.926;2022-12-29T12:17:10;3.10;;;0.70;;
37483;SDS011;23337;52.212;9.926;2022-12-29T12:19:40;2.97;;;0.60;;
37483;SDS011;23337;52.212;9.926;2022-12-29T12:22:12;3.00;;;0.57;;
37483;SDS011;23337;52.212;9.926;2022-12-29T12:24:43;1.07;;;0.50;;
37483;SDS011;23337;52.212;9.926;2022-12-29T12:27:18;3.87;;;0.70;;
37483;SDS011;23337;52.212;9.926;2022-12-29T12:29:50;2.43;;;0.90;;
37483;SDS011;23337;52.212;9.926;2022-12-29T12:32:24;11.07;;;1.90;;
37483;SDS011;23337;52.212;9.926;2022-12-29T12:34:52;8.33;;;1.80;;
37483;SDS011;23337;52.212;9.926;2022-12-29T12:37:22;8.60;;;1.97;;
37483;SDS011;23337;52.212;9.926;2022-12-29T12:40:01;15.67;;;3.30;;
37483;SDS011;23337;52.212;9.926;2022-12-29T12:56:15;3.13;;;0.57;;
37483;SDS011;23337;52.212;9.926;2022-12-29T12:58:54;2.77;;;0.87;;
37483;SDS011;23337;52.212;9.926;2022-12-29T13:01:32;2.40;;;1.00;;
37483;SDS011;23337;52.212;9.926;2022-12-29T13:11:53;2.87;;;0.73;;
37483;SDS011;23337;52.212;9.926;2022-12-29T13:24:26;4.07;;;1.10;;
37483;SDS011;23337;52.212;9.926;2022-12-29T13:27:00;4.17;;;1.27;;
37483;SDS011;23337;52.212;9.926;2022-12-29T13:32:00;3.27;;;1.43;;
37483;SDS011;23337;52.212;9.926;2022-12-29T13:36:58;4.13;;;1.87;;
37483;SDS011;23337;52.212;9.926;2022-12-29T13:39:26;2.43;;;0.87;;
37483;SDS011;23337;52.212;9.926;2022-12-29T13:41:55;3.67;;;0.90;;
37483;SDS011;23337;52.212;9.926;2022-12-29T13:44:28;2.87;;;0.80;;
37483;SDS011;23337;52.212;9.926;2022-12-29T13:46:56;3.57;;;1.00;;
37483;SDS011;23337;52.212;9.926;2022-12-29T13:49:24;3.13;;;0.70;;
37483;SDS011;23337;52.212;9.926;2022-12-29T13:51:56;5.10;;;1.03;;
37483;SDS011;23337;52.212;9.926;2022-12-29T13:59:26;4.40;;;0.93;;
37483;SDS011;23337;52.212;9.926;2022-12-29T14:01:58;6.17;;;1.20;;
37483;SDS011;23337;52.212;9.926;2022-12-29T14:04:27;1.57;;;0.97;;
37483;SDS011;23337;52.212;9.926;2022-12-29T14:07:00;4.40;;;1.00;;
37483;SDS011;23337;52.212;9.926;2022-12-29T14:09:38;7.57;;;1.07;;
37483;SDS011;23337;52.212;9.926;2022-12-29T14:14:49;2.40;;;1.20;;
37483;SDS011;23337;52.212;9.926;2022-12-29T14:17:18;3.77;;;1.50;;
37483;SDS011;23337;52.212;9.926;2022-12-29T14:19:44;2.77;;;1.20;;
37483;SDS011;23337;52.212;9.926;2022-12-29T14:22:11;6.17;;;1.57;;
37483;SDS011;23337;52.212;9.926;2022-12-29T14:24:38;4.73;;;1.17;;
37483;SDS011;23337;52.212;9.926;2022-12-29T14:32:39;4.43;;;1.20;;
37483;SDS011;23337;52.212;9.926;2022-12-29T14:34:59;5.00;;;1.10;;
37483;SDS011;23337;52.212;9.926;2022-12-29T14:37:29;4.27;;;1.73;;
37483;SDS011;23337;52.212;9.926;2022-12-29T14:42:31;3.20;;;1.00;;
37483;SDS011;23337;52.212;9.926;2022-12-29T14:49:52;2.57;;;0.80;;
37483;SDS011;23337;52.212;9.926;2022-12-29T14:52:19;3.17;;;1.10;;
37483;SDS011;23337;52.212;9.926;2022-12-29T14:54:47;4.07;;;1.07;;
37483;SDS011;23337;52.212;9.926;2022-12-29T14:57:25;2.80;;;1.07;;
37483;SDS011;23337;52.212;9.926;2022-12-29T14:59:56;3.47;;;1.30;;
37483;SDS011;23337;52.212;9.926;2022-12-29T15:02:25;3.15;;;1.08;;
37483;SDS011;23337;52.212;9.926;2022-12-29T15:04:51;4.80;;;1.23;;
37483;SDS011;23337;52.212;9.926;2022-12-29T15:07:19;7.83;;;1.20;;
37483;SDS011;23337;52.212;9.926;2022-12-29T15:09:46;2.50;;;1.17;;
37483;SDS011;23337;52.212;9.926;2022-12-29T15:12:21;2.67;;;1.10;;
37483;SDS011;23337;52.212;9.926;2022-12-29T15:14:52;4.30;;;1.00;;
37483;SDS011;23337;52.212;9.926;2022-12-29T15:17:28;5.27;;;1.50;;
37483;SDS011;23337;52.212;9.926;2022-12-29T15:19:56;5.33;;;1.27;;
37483;SDS011;23337;52.212;9.926;2022-12-29T15:22:22;4.20;;;1.40;;
37483;SDS011;23337;52.212;9.926;2022-12-29T15:24:52;3.10;;;1.00;;
37483;SDS011;23337;52.212;9.926;2022-12-29T15:27:22;1.93;;;0.93;;
37483;SDS011;23337;52.212;9.926;2022-12-29T15:29:57;6.07;;;1.43;;
37483;SDS011;23337;52.212;9.926;2022-12-29T15:32:24;3.87;;;1.07;;
37483;SDS011;23337;52.212;9.926;2022-12-29T15:34:52;1.63;;;0.63;;
37483;SDS011;23337;52.212;9.926;2022-12-29T15:37:19;2.23;;;0.87;;
37483;SDS011;23337;52.212;9.926;2022-12-29T15:39:46;3.03;;;0.80;;
37483;SDS011;23337;52.212;9.926;2022-12-29T15:42:20;2.33;;;1.00;;
37483;SDS011;23337;52.212;9.926;2022-12-29T15:44:49;4.23;;;1.37;;
37483;SDS011;23337;52.212;9.926;2022-12-29T15:47:19;3.90;;;0.80;;
37483;SDS011;23337;52.212;9.926;2022-12-29T15:49:49;4.50;;;1.47;;
37483;SDS011;23337;52.212;9.926;2022-12-29T15:52:17;4.10;;;1.47;;
37483;SDS011;23337;52.212;9.926;2022-12-29T15:54:43;6.03;;;2.60;;
37483;SDS011;23337;52.212;9.926;2022-12-29T15:59:48;16.37;;;9.70;;
37483;SDS011;23337;52.212;9.926;2022-12-29T16:02:13;6.30;;;2.10;;
37483;SDS011;23337;52.212;9.926;2022-12-29T16:04:40;3.37;;;1.40;;
37483;SDS011;23337;52.212;9.926;2022-12-29T16:07:20;6.00;;;1.87;;
37483;SDS011;23337;52.212;9.926;2022-12-29T16:09:48;3.60;;;2.00;;
37483;SDS011;23337;52.212;9.926;2022-12-29T16:12:20;4.73;;;2.00;;
37483;SDS011;23337;52.212;9.926;2022-12-29T16:14:59;8.93;;;3.53;;
37483;SDS011;23337;52.212;9.926;2022-12-29T16:17:27;5.30;;;2.23;;
37483;SDS011;23337;52.212;9.926;2022-12-29T16:19:58;4.77;;;1.47;;
37483;SDS011;23337;52.212;9.926;2022-12-29T16:22:35;3.77;;;1.30;;
37483;SDS011;23337;52.212;9.926;2022-12-29T16:25:07;4.70;;;0.93;;
37483;SDS011;23337;52.212;9.926;2022-12-29T16:27:37;2.83;;;1.20;;
37483;SDS011;23337;52.212;9.926;2022-12-29T16:30:04;4.10;;;1.20;;
37483;SDS011;23337;52.212;9.926;2022-12-29T16:32:31;7.27;;;1.70;;
37483;SDS011;23337;52.212;9.926;2022-12-29T16:35:44;2.87;;;1.03;;
37483;SDS011;23337;52.212;9.926;2022-12-29T16:37:47;6.07;;;1.10;;
37483;SDS011;23337;52.212;9.926;2022-12-29T16:40:22;3.87;;;1.03;;
37483;SDS011;23337;52.212;9.926;2022-12-29T16:42:49;2.43;;;0.87;;
37483;SDS011;23337;52.212;9.926;2022-12-29T16:47:47;7.37;;;1.70;;
37483;SDS011;23337;52.212;9.926;2022-12-29T16:50:17;2.33;;;1.70;;
37483;SDS011;23337;52.212;9.926;2022-12-29T16:52:50;5.97;;;1.50;;
37483;SDS011;23337;52.212;9.926;2022-12-29T16:55:19;4.43;;;1.23;;
37483;SDS011;23337;52.212;9.926;2022-12-29T16:57:46;3.97;;;1.93;;
37483;SDS011;23337;52.212;9.926;2022-12-29T17:00:17;2.87;;;1.00;;